sensor_id;sensor_type;location;lat;lon;timestamp;pressure;altitude;pressure_sealevel;temperature;humidity
39739;BME280;25422;48.286;8.484;2023-08-30T00:01:11;93629.25;;;9.58;100.00
39739;BME280;25422;48.286;8.484;2023-08-30T00:03:37;93618.16;;;9.56;100.00
39739;BME280;25422;48.286;8.484;2023-08-30T00:06:06;93624.38;;;9.55;100.00
39739;BME280;25422;48.286;8.484;2023-08-30T00:08:32;93617.56;;;9.54;100.00
39739;BME280;25422;48.286;8.484;2023-08-30T00:10:58;93618.16;;;9.56;100.00
39739;BME280;25422;48.286;8.484;2023-08-30T00:13:29;93620.78;;;9.56;100.00
39739;BME280;25422;48.286;8.484;2023-08-30T00:15:54;93617.81;;;9.59;100.00
39739;BME280;25422;48.286;8.484;2023-08-30T00:18:20;93617.38;;;9.55;100.00
39739;BME280;25422;48.286;8.484;2023-08-30T00:20:46;93601.78;;;9.47;100.00
39739;BME280;25422;48.286;8.484;2023-08-30T00:23:11;93613.50;;;9.51;100.00
39739;BME280;25422;48.286;8.484;2023-08-30T00:25:37;93615.28;;;9.51;100.00
39739;BME280;25422;48.286;8.484;2023-08-30T00:28:02;93608.53;;;9.41;100.00
39739;BME280;25422;48.286;8.484;2023-08-30T00:30:28;93607.13;;;9.31;100.00
39739;BME280;25422;48.286;8.484;2023-08-30T00:32:54;93605.69;;;9.28;100.00
39739;BME280;25422;48.286;8.484;2023-08-30T00:35:19;93601.16;;;9.22;100.00
39739;BME280;25422;48.286;8.484;2023-08-30T00:37:45;93601.16;;;9.22;100.00
39739;BME280;25422;48.286;8.484;2023-08-30T00:40:10;93591.06;;;9.19;100.00
39739;BME280;25422;48.286;8.484;2023-08-30T00:42:36;93595.19;;;9.13;100.00
39739;BME280;25422;48.286;8.484;2023-08-30T00:45:02;93586.09;;;9.09;100.00
39739;BME280;25422;48.286;8.484;2023-08-30T00:47:27;93591.94;;;9.11;100.00
39739;BME280;25422;48.286;8.484;2023-08-30T00:49:53;93590.16;;;9.11;100.00
39739;BME280;25422;48.286;8.484;2023-08-30T00:52:19;93591.94;;;9.11;100.00
39739;BME280;25422;48.286;8.484;2023-08-30T00:54:44;93586.78;;;9.03;100.00
39739;BME280;25422;48.286;8.484;2023-08-30T00:57:10;93580.13;;;9.00;100.00
39739;BME280;25422;48.286;8.484;2023-08-30T00:59:36;93589.75;;;9.00;100.00
39739;BME280;25422;48.286;8.484;2023-08-30T01:02:02;93586.03;;;8.94;100.00
39739;BME280;25422;48.286;8.484;2023-08-30T01:04:29;93585.69;;;8.97;100.00
39739;BME280;25422;48.286;8.484;2023-08-30T01:06:54;93584.84;;;8.97;100.00
39739;BME280;25422;48.286;8.484;2023-08-30T01:09:20;93574.66;;;8.87;100.00
39739;BME280;25422;48.286;8.484;2023-08-30T01:11:53;93571.75;;;8.82;100.00
39739;BME280;25422;48.286;8.484;2023-08-30T01:14:25;93571.31;;;8.78;100.00
39739;BME280;25422;48.286;8.484;2023-08-30T01:16:54;93571.81;;;8.73;100.00
39739;BME280;25422;48.286;8.484;2023-08-30T01:22:15;93571.19;;;8.71;100.00
39739;BME280;25422;48.286;8.484;2023-08-30T01:24:56;93573.00;;;8.71;100.00
39739;BME280;25422;48.286;8.484;2023-08-30T01:27:23;93576.41;;;8.71;100.00
39739;BME280;25422;48.286;8.484;2023-08-30T01:29:51;93581.97;;;8.68;100.00
39739;BME280;25422;48.286;8.484;2023-08-30T01:32:19;93573.50;;;8.66;100.00
39739;BME280;25422;48.286;8.484;2023-08-30T01:34:46;93574.66;;;8.64;100.00
39739;BME280;25422;48.286;8.484;2023-08-30T01:37:12;93573.94;;;8.47;100.00
39739;BME280;25422;48.286;8.484;2023-08-30T01:39:40;93563.72;;;8.28;100.00
39739;BME280;25422;48.286;8.484;2023-08-30T01:42:07;93561.34;;;8.19;100.00
39739;BME280;25422;48.286;8.484;2023-08-30T01:44:35;93561.38;;;8.10;100.00
39739;BME280;25422;48.286;8.484;2023-08-30T01:47:02;93570.50;;;8.06;100.00
39739;BME280;25422;48.286;8.484;2023-08-30T01:49:30;93565.97;;;8.00;100.00
39739;BME280;25422;48.286;8.484;2023-08-30T01:51:59;93567.00;;;7.91;100.00
39739;BME280;25422;48.286;8.484;2023-08-30T01:54:25;93568.13;;;7.88;100.00
39739;BME280;25422;48.286;8.484;2023-08-30T01:56:50;93561.47;;;7.86;100.00
39739;BME280;25422;48.286;8.484;2023-08-30T01:59:16;93564.28;;;7.76;100.00
39739;BME280;25422;48.286;8.484;2023-08-30T02:01:41;93561.81;;;7.74;100.00
39739;BME280;25422;48.286;8.484;2023-08-30T02:04:07;93555.34;;;7.62;100.00
39739;BME280;25422;48.286;8.484;2023-08-30T02:06:36;93557.94;;;7.62;100.00
39739;BME280;25422;48.286;8.484;2023-08-30T02:09:09;93557.94;;;7.62;100.00
39739;BME280;25422;48.286;8.484;2023-08-30T02:11:37;93559.59;;;7.55;100.00
39739;BME280;25422;48.286;8.484;2023-08-30T02:14:05;93557.34;;;7.43;100.00
39739;BME280;25422;48.286;8.484;2023-08-30T02:16:35;93563.53;;;7.34;100.00
39739;BME280;25422;48.286;8.484;2023-08-30T02:19:02;93560.28;;;7.32;100.00
39739;BME280;25422;48.286;8.484;2023-08-30T02:21:27;93566.16;;;7.26;100.00
39739;BME280;25422;48.286;8.484;2023-08-30T02:23:53;93562.59;;;7.27;100.00
39739;BME280;25422;48.286;8.484;2023-08-30T02:26:20;93560.78;;;7.19;100.00
39739;BME280;25422;48.286;8.484;2023-08-30T02:28:46;93562.56;;;7.19;100.00
39739;BME280;25422;48.286;8.484;2023-08-30T02:31:11;93562.44;;;7.20;100.00
39739;BME280;25422;48.286;8.484;2023-08-30T02:33:37;93561.13;;;7.16;100.00
39739;BME280;25422;48.286;8.484;2023-08-30T02:36:03;93572.34;;;7.17;100.00
39739;BME280;25422;48.286;8.484;2023-08-30T02:38:29;93560.81;;;7.11;100.00
39739;BME280;25422;48.286;8.484;2023-08-30T02:40:55;93556.72;;;7.08;100.00
39739;BME280;25422;48.286;8.484;2023-08-30T02:43:20;93562.72;;;7.09;100.00
39739;BME280;25422;48.286;8.484;2023-08-30T02:45:45;93560.47;;;7.06;100.00
39739;BME280;25422;48.286;8.484;2023-08-30T02:48:11;93573.31;;;7.07;100.00
39739;BME280;25422;48.286;8.484;2023-08-30T02:50:36;93562.72;;;7.09;100.00
39739;BME280;25422;48.286;8.484;2023-08-30T02:53:02;93561.78;;;7.10;100.00
39739;BME280;25422;48.286;8.484;2023-08-30T02:55:28;93564.19;;;7.12;100.00
39739;BME280;25422;48.286;8.484;2023-08-30T02:57:53;93557.19;;;7.12;100.00
39739;BME280;25422;48.286;8.484;2023-08-30T03:00:19;93561.94;;;7.08;100.00
39739;BME280;25422;48.286;8.484;2023-08-30T03:02:47;93560.13;;;7.09;100.00
39739;BME280;25422;48.286;8.484;2023-08-30T03:05:14;93555.94;;;7.16;100.00
39739;BME280;25422;48.286;8.484;2023-08-30T03:07:39;93556.22;;;7.13;100.00
39739;BME280;25422;48.286;8.484;2023-08-30T03:10:06;93554.75;;;7.11;100.00
39739;BME280;25422;48.286;8.484;2023-08-30T03:12:31;93554.94;;;7.09;100.00
39739;BME280;25422;48.286;8.484;2023-08-30T03:14:58;93546.50;;;7.07;100.00
39739;BME280;25422;48.286;8.484;2023-08-30T03:17:23;93555.09;;;6.99;100.00
39739;BME280;25422;48.286;8.484;2023-08-30T03:19:52;93553.16;;;7.01;100.00
39739;BME280;25422;48.286;8.484;2023-08-30T03:22:18;93553.47;;;6.98;100.00
39739;BME280;25422;48.286;8.484;2023-08-30T03:24:44;93553.63;;;6.97;100.00
39739;BME280;25422;48.286;8.484;2023-08-30T03:27:09;93557.03;;;6.97;100.00
39739;BME280;25422;48.286;8.484;2023-08-30T03:29:34;93552.50;;;6.91;100.00
39739;BME280;25422;48.286;8.484;2023-08-30T03:32:00;93551.22;;;6.87;100.00
39739;BME280;25422;48.286;8.484;2023-08-30T03:34:26;93552.66;;;6.89;100.00
39739;BME280;25422;48.286;8.484;2023-08-30T03:36:51;93550.25;;;6.88;100.00
39739;BME280;25422;48.286;8.484;2023-08-30T03:39:20;93552.34;;;6.84;100.00
39739;BME280;25422;48.286;8.484;2023-08-30T03:41:46;93555.75;;;6.85;100.00
39739;BME280;25422;48.286;8.484;2023-08-30T03:44:11;93549.91;;;6.83;100.00
39739;BME280;25422;48.286;8.484;2023-08-30T03:46:37;93553.31;;;6.83;100.00
39739;BME280;25422;48.286;8.484;2023-08-30T03:49:02;93557.88;;;6.89;100.00
39739;BME280;25422;48.286;8.484;2023-08-30T03:51:29;93551.84;;;6.89;100.00
39739;BME280;25422;48.286;8.484;2023-08-30T03:53:55;93552.50;;;6.83;100.00
39739;BME280;25422;48.286;8.484;2023-08-30T03:56:23;93556.06;;;6.82;100.00
39739;BME280;25422;48.286;8.484;2023-08-30T03:58:49;93555.09;;;6.83;100.00
39739;BME280;25422;48.286;8.484;2023-08-30T04:01:14;93555.09;;;6.83;100.00
39739;BME280;25422;48.286;8.484;2023-08-30T04:03:40;93552.66;;;6.89;100.00
39739;BME280;25422;48.286;8.484;2023-08-30T04:06:07;93560.63;;;6.96;100.00
39739;BME280;25422;48.286;8.484;2023-08-30T04:08:32;93562.25;;;6.97;100.00
39739;BME280;25422;48.286;8.484;2023-08-30T04:10:58;93559.81;;;6.96;100.00
39739;BME280;25422;48.286;8.484;2023-08-30T04:13:23;93561.94;;;7.00;100.00
39739;BME280;25422;48.286;8.484;2023-08-30T04:15:49;93557.88;;;6.98;100.00
39739;BME280;25422;48.286;8.484;2023-08-30T04:18:14;93563.25;;;6.96;100.00
39739;BME280;25422;48.286;8.484;2023-08-30T04:20:46;93561.44;;;6.88;100.00
39739;BME280;25422;48.286;8.484;2023-08-30T04:23:12;93557.53;;;6.84;100.00
39739;BME280;25422;48.286;8.484;2023-08-30T04:25:38;93563.88;;;6.82;100.00
39739;BME280;25422;48.286;8.484;2023-08-30T04:28:05;93555.28;;;6.81;100.00
39739;BME280;25422;48.286;8.484;2023-08-30T04:30:31;93553.31;;;6.83;100.00
39739;BME280;25422;48.286;8.484;2023-08-30T04:32:56;93550.72;;;6.83;100.00
39739;BME280;25422;48.286;8.484;2023-08-30T04:35:22;93557.53;;;6.84;100.00
39739;BME280;25422;48.286;8.484;2023-08-30T04:37:47;93554.13;;;6.92;100.00
39739;BME280;25422;48.286;8.484;2023-08-30T04:40:14;93554.31;;;6.90;100.00
39739;BME280;25422;48.286;8.484;2023-08-30T04:42:39;93549.91;;;6.91;100.00
39739;BME280;25422;48.286;8.484;2023-08-30T04:45:06;93557.03;;;6.97;100.00
39739;BME280;25422;48.286;8.484;2023-08-30T04:47:32;93562.41;;;7.04;100.00
39739;BME280;25422;48.286;8.484;2023-08-30T04:49:59;93559.34;;;7.08;100.00
39739;BME280;25422;48.286;8.484;2023-08-30T04:52:25;93564.38;;;7.10;100.00
39739;BME280;25422;48.286;8.484;2023-08-30T04:54:54;93561.13;;;7.16;100.00
39739;BME280;25422;48.286;8.484;2023-08-30T04:57:20;93570.38;;;7.19;100.00
39739;BME280;25422;48.286;8.484;2023-08-30T04:59:48;93560.28;;;7.24;100.00
39739;BME280;25422;48.286;8.484;2023-08-30T05:02:13;93566.47;;;7.23;100.00
39739;BME280;25422;48.286;8.484;2023-08-30T05:04:57;93561.28;;;7.31;100.00
39739;BME280;25422;48.286;8.484;2023-08-30T05:07:23;93557.69;;;7.32;100.00
39739;BME280;25422;48.286;8.484;2023-08-30T05:09:48;93561.41;;;7.46;100.00
39739;BME280;25422;48.286;8.484;2023-08-30T05:12:14;93560.09;;;7.50;100.00
39739;BME280;25422;48.286;8.484;2023-08-30T05:14:40;93552.09;;;7.60;100.00
39739;BME280;25422;48.286;8.484;2023-08-30T05:17:06;93557.59;;;7.73;100.00
39739;BME280;25422;48.286;8.484;2023-08-30T05:19:31;93547.63;;;7.85;100.00
39739;BME280;25422;48.286;8.484;2023-08-30T05:21:57;93543.56;;;7.91;100.00
39739;BME280;25422;48.286;8.484;2023-08-30T05:24:23;93542.69;;;7.99;100.00
39739;BME280;25422;48.286;8.484;2023-08-30T05:26:48;93546.41;;;8.04;100.00
39739;BME280;25422;48.286;8.484;2023-08-30T05:29:16;93538.28;;;8.07;100.00
39739;BME280;25422;48.286;8.484;2023-08-30T05:31:42;93540.53;;;8.10;100.00
39739;BME280;25422;48.286;8.484;2023-08-30T05:34:26;93537.25;;;8.17;100.00
39739;BME280;25422;48.286;8.484;2023-08-30T05:37:03;93542.13;;;8.20;100.00
39739;BME280;25422;48.286;8.484;2023-08-30T05:39:47;93539.78;;;8.33;100.00
39739;BME280;25422;48.286;8.484;2023-08-30T05:42:13;93544.09;;;8.41;100.00
39739;BME280;25422;48.286;8.484;2023-08-30T05:44:38;93535.03;;;8.45;100.00
39739;BME280;25422;48.286;8.484;2023-08-30T05:47:04;93535.03;;;8.45;100.00
39739;BME280;25422;48.286;8.484;2023-08-30T05:49:29;93541.16;;;8.52;100.00
39739;BME280;25422;48.286;8.484;2023-08-30T05:51:55;93545.47;;;8.68;100.00
39739;BME280;25422;48.286;8.484;2023-08-30T05:54:20;93542.78;;;8.76;100.00
39739;BME280;25422;48.286;8.484;2023-08-30T05:56:45;93542.63;;;8.78;100.00
39739;BME280;25422;48.286;8.484;2023-08-30T05:59:11;93536.25;;;8.81;100.00
39739;BME280;25422;48.286;8.484;2023-08-30T06:01:36;93537.84;;;8.82;100.00
39739;BME280;25422;48.286;8.484;2023-08-30T06:04:02;93540.13;;;8.85;100.00
39739;BME280;25422;48.286;8.484;2023-08-30T06:06:29;93545.91;;;8.95;100.00
39739;BME280;25422;48.286;8.484;2023-08-30T06:08:55;93539.75;;;9.11;100.00
39739;BME280;25422;48.286;8.484;2023-08-30T06:11:20;93537.59;;;9.15;100.00
39739;BME280;25422;48.286;8.484;2023-08-30T06:13:45;93539.06;;;9.17;100.00
39739;BME280;25422;48.286;8.484;2023-08-30T06:16:11;93533.28;;;9.22;100.00
39739;BME280;25422;48.286;8.484;2023-08-30T06:18:36;93535.59;;;9.55;100.00
39739;BME280;25422;48.286;8.484;2023-08-30T06:21:02;93530.31;;;9.93;100.00
39739;BME280;25422;48.286;8.484;2023-08-30T06:23:29;93532.50;;;10.26;100.00
39739;BME280;25422;48.286;8.484;2023-08-30T06:25:55;93528.25;;;10.40;100.00
39739;BME280;25422;48.286;8.484;2023-08-30T06:28:21;93526.28;;;10.42;100.00
39739;BME280;25422;48.286;8.484;2023-08-30T06:30:47;93538.47;;;10.93;100.00
39739;BME280;25422;48.286;8.484;2023-08-30T06:33:12;93531.97;;;11.10;100.00
39739;BME280;25422;48.286;8.484;2023-08-30T06:35:37;93529.84;;;11.21;100.00
39739;BME280;25422;48.286;8.484;2023-08-30T06:38:06;93524.84;;;11.26;100.00
39739;BME280;25422;48.286;8.484;2023-08-30T06:40:32;93521.28;;;11.62;100.00
39739;BME280;25422;48.286;8.484;2023-08-30T06:42:58;93528.56;;;11.67;100.00
39739;BME280;25422;48.286;8.484;2023-08-30T06:45:24;93525.00;;;12.09;100.00
39739;BME280;25422;48.286;8.484;2023-08-30T06:47:50;93520.41;;;12.18;100.00
39739;BME280;25422;48.286;8.484;2023-08-30T06:50:15;93519.59;;;12.24;100.00
39739;BME280;25422;48.286;8.484;2023-08-30T06:52:41;93520.28;;;12.46;100.00
39739;BME280;25422;48.286;8.484;2023-08-30T06:55:06;93517.63;;;12.40;100.00
39739;BME280;25422;48.286;8.484;2023-08-30T06:57:32;93513.88;;;12.01;100.00
39739;BME280;25422;48.286;8.484;2023-08-30T06:59:57;93515.66;;;12.00;100.00
39739;BME280;25422;48.286;8.484;2023-08-30T07:02:25;93512.13;;;11.86;100.00
39739;BME280;25422;48.286;8.484;2023-08-30T07:04:51;93522.97;;;12.05;100.00
39739;BME280;25422;48.286;8.484;2023-08-30T07:07:16;93512.31;;;12.13;100.00
39739;BME280;25422;48.286;8.484;2023-08-30T07:09:41;93522.66;;;12.28;100.00
39739;BME280;25422;48.286;8.484;2023-08-30T07:12:07;93520.44;;;12.31;100.00
39739;BME280;25422;48.286;8.484;2023-08-30T07:14:32;93520.88;;;12.42;100.00
39739;BME280;25422;48.286;8.484;2023-08-30T07:16:58;93524.94;;;12.51;100.00
39739;BME280;25422;48.286;8.484;2023-08-30T07:19:24;93526.56;;;12.52;100.00
39739;BME280;25422;48.286;8.484;2023-08-30T07:21:50;93523.00;;;12.80;100.00
39739;BME280;25422;48.286;8.484;2023-08-30T07:24:15;93531.50;;;13.09;100.00
39739;BME280;25422;48.286;8.484;2023-08-30T07:26:41;93520.84;;;13.37;100.00
39739;BME280;25422;48.286;8.484;2023-08-30T07:29:06;93518.59;;;13.81;100.00
39739;BME280;25422;48.286;8.484;2023-08-30T07:31:32;93527.44;;;14.07;100.00
39739;BME280;25422;48.286;8.484;2023-08-30T07:33:58;93526.22;;;14.03;100.00
39739;BME280;25422;48.286;8.484;2023-08-30T07:36:27;93526.34;;;14.28;100.00
39739;BME280;25422;48.286;8.484;2023-08-30T07:38:53;93530.06;;;14.65;100.00
39739;BME280;25422;48.286;8.484;2023-08-30T07:41:19;93521.97;;;14.99;100.00
39739;BME280;25422;48.286;8.484;2023-08-30T07:43:44;93528.03;;;14.99;100.00
39739;BME280;25422;48.286;8.484;2023-08-30T07:46:10;93523.78;;;14.98;100.00
39739;BME280;25422;48.286;8.484;2023-08-30T07:48:35;93525.50;;;14.86;100.00
39739;BME280;25422;48.286;8.484;2023-08-30T07:51:01;93515.91;;;14.53;100.00
39739;BME280;25422;48.286;8.484;2023-08-30T07:53:26;93522.38;;;14.64;100.00
39739;BME280;25422;48.286;8.484;2023-08-30T07:55:51;93521.63;;;14.43;100.00
39739;BME280;25422;48.286;8.484;2023-08-30T07:58:17;93522.66;;;14.42;100.00
39739;BME280;25422;48.286;8.484;2023-08-30T08:00:43;93526.06;;;14.49;100.00
39739;BME280;25422;48.286;8.484;2023-08-30T08:03:08;93520.31;;;14.66;100.00
39739;BME280;25422;48.286;8.484;2023-08-30T08:05:35;93519.81;;;14.82;100.00
39739;BME280;25422;48.286;8.484;2023-08-30T08:08:01;93527.84;;;14.56;100.00
39739;BME280;25422;48.286;8.484;2023-08-30T08:10:28;93517.75;;;14.91;100.00
39739;BME280;25422;48.286;8.484;2023-08-30T08:12:56;93518.91;;;15.27;100.00
39739;BME280;25422;48.286;8.484;2023-08-30T08:15:22;93520.38;;;15.48;100.00
39739;BME280;25422;48.286;8.484;2023-08-30T08:17:47;93523.75;;;15.56;100.00
39739;BME280;25422;48.286;8.484;2023-08-30T08:20:12;93531.72;;;15.24;100.00
39739;BME280;25422;48.286;8.484;2023-08-30T08:22:39;93526.81;;;15.27;100.00
39739;BME280;25422;48.286;8.484;2023-08-30T08:25:04;93525.81;;;15.28;100.00
39739;BME280;25422;48.286;8.484;2023-08-30T08:27:30;93523.28;;;15.65;100.00
39739;BME280;25422;48.286;8.484;2023-08-30T08:29:55;93525.50;;;15.68;100.00
39739;BME280;25422;48.286;8.484;2023-08-30T08:32:20;93523.94;;;15.86;100.00
39739;BME280;25422;48.286;8.484;2023-08-30T08:34:46;93511.63;;;16.35;100.00
39739;BME280;25422;48.286;8.484;2023-08-30T08:37:11;93519.63;;;16.10;100.00
39739;BME280;25422;48.286;8.484;2023-08-30T08:39:37;93520.38;;;15.74;100.00
39739;BME280;25422;48.286;8.484;2023-08-30T08:42:03;93524.59;;;15.56;100.00
39739;BME280;25422;48.286;8.484;2023-08-30T08:44:31;93524.81;;;15.55;100.00
39739;BME280;25422;48.286;8.484;2023-08-30T08:46:59;93520.22;;;15.68;100.00
39739;BME280;25422;48.286;8.484;2023-08-30T08:49:25;93512.22;;;16.00;100.00
39739;BME280;25422;48.286;8.484;2023-08-30T08:51:53;93521.50;;;16.59;100.00
39739;BME280;25422;48.286;8.484;2023-08-30T08:54:19;93518.06;;;16.58;100.00
39739;BME280;25422;48.286;8.484;2023-08-30T08:56:45;93520.03;;;16.63;100.00
39739;BME280;25422;48.286;8.484;2023-08-30T08:59:11;93524.53;;;16.93;100.00
39739;BME280;25422;48.286;8.484;2023-08-30T09:01:38;93523.59;;;17.17;100.00
39739;BME280;25422;48.286;8.484;2023-08-30T09:04:05;93514.69;;;17.78;100.00
39739;BME280;25422;48.286;8.484;2023-08-30T09:06:32;93512.63;;;18.27;100.00
39739;BME280;25422;48.286;8.484;2023-08-30T09:08:58;93513.91;;;18.65;100.00
39739;BME280;25422;48.286;8.484;2023-08-30T09:11:23;93513.78;;;18.60;100.00
39739;BME280;25422;48.286;8.484;2023-08-30T09:13:49;93509.16;;;18.67;100.00
39739;BME280;25422;48.286;8.484;2023-08-30T09:16:15;93519.69;;;19.37;100.00
39739;BME280;25422;48.286;8.484;2023-08-30T09:18:41;93514.31;;;19.66;100.00
39739;BME280;25422;48.286;8.484;2023-08-30T09:21:10;93511.28;;;18.53;100.00
39739;BME280;25422;48.286;8.484;2023-08-30T09:23:36;93519.34;;;18.87;100.00
39739;BME280;25422;48.286;8.484;2023-08-30T09:26:02;93521.38;;;19.43;100.00
39739;BME280;25422;48.286;8.484;2023-08-30T09:28:28;93521.59;;;19.25;100.00
39739;BME280;25422;48.286;8.484;2023-08-30T09:30:54;93518.94;;;19.25;100.00
39739;BME280;25422;48.286;8.484;2023-08-30T09:33:23;93523.63;;;19.51;100.00
39739;BME280;25422;48.286;8.484;2023-08-30T09:35:54;93511.56;;;19.27;100.00
39739;BME280;25422;48.286;8.484;2023-08-30T09:38:20;93516.31;;;19.76;100.00
39739;BME280;25422;48.286;8.484;2023-08-30T09:40:46;93514.78;;;19.46;100.00
39739;BME280;25422;48.286;8.484;2023-08-30T09:43:12;93510.84;;;19.65;100.00
39739;BME280;25422;48.286;8.484;2023-08-30T09:45:38;93518.31;;;19.17;100.00
39739;BME280;25422;48.286;8.484;2023-08-30T09:48:05;93513.63;;;19.25;100.00
39739;BME280;25422;48.286;8.484;2023-08-30T09:50:34;93513.06;;;18.65;100.00
39739;BME280;25422;48.286;8.484;2023-08-30T09:53:02;93516.53;;;18.13;100.00
39739;BME280;25422;48.286;8.484;2023-08-30T09:55:30;93513.34;;;18.51;100.00
39739;BME280;25422;48.286;8.484;2023-08-30T09:57:56;93512.72;;;17.85;100.00
39739;BME280;25422;48.286;8.484;2023-08-30T10:00:22;93519.91;;;17.18;100.00
39739;BME280;25422;48.286;8.484;2023-08-30T10:02:48;93519.06;;;17.06;100.00
39739;BME280;25422;48.286;8.484;2023-08-30T10:05:13;93505.25;;;16.92;100.00
39739;BME280;25422;48.286;8.484;2023-08-30T10:07:40;93504.56;;;16.97;100.00
39739;BME280;25422;48.286;8.484;2023-08-30T10:10:06;93500.56;;;17.06;100.00
39739;BME280;25422;48.286;8.484;2023-08-30T10:12:32;93505.16;;;16.50;100.00
39739;BME280;25422;48.286;8.484;2023-08-30T10:14:58;93504.31;;;16.68;100.00
39739;BME280;25422;48.286;8.484;2023-08-30T10:17:27;93506.41;;;16.47;100.00
39739;BME280;25422;48.286;8.484;2023-08-30T10:19:54;93505.53;;;16.84;100.00
39739;BME280;25422;48.286;8.484;2023-08-30T10:22:21;93502.88;;;17.14;100.00
39739;BME280;25422;48.286;8.484;2023-08-30T10:24:54;93489.06;;;17.66;100.00
39739;BME280;25422;48.286;8.484;2023-08-30T10:27:21;93500.75;;;17.59;100.00
39739;BME280;25422;48.286;8.484;2023-08-30T10:29:48;93499.63;;;17.55;100.00
39739;BME280;25422;48.286;8.484;2023-08-30T10:32:19;93500.31;;;17.50;100.00
39739;BME280;25422;48.286;8.484;2023-08-30T10:34:47;93496.06;;;18.08;100.00
39739;BME280;25422;48.286;8.484;2023-08-30T10:37:14;93496.91;;;18.37;100.00
39739;BME280;25422;48.286;8.484;2023-08-30T10:39:41;93498.03;;;18.53;100.00
39739;BME280;25422;48.286;8.484;2023-08-30T10:42:08;93489.84;;;17.79;100.00
39739;BME280;25422;48.286;8.484;2023-08-30T10:44:35;93485.47;;;17.84;100.00
39739;BME280;25422;48.286;8.484;2023-08-30T10:47:02;93482.72;;;17.56;100.00
39739;BME280;25422;48.286;8.484;2023-08-30T10:49:27;93485.13;;;17.57;100.00
39739;BME280;25422;48.286;8.484;2023-08-30T10:51:57;93481.09;;;17.55;100.00
39739;BME280;25422;48.286;8.484;2023-08-30T10:54:23;93477.50;;;17.25;100.00
39739;BME280;25422;48.286;8.484;2023-08-30T10:59:18;93471.34;;;17.43;100.00
39739;BME280;25422;48.286;8.484;2023-08-30T11:01:45;93463.50;;;17.96;100.00
39739;BME280;25422;48.286;8.484;2023-08-30T11:04:14;93468.78;;;17.96;100.00
39739;BME280;25422;48.286;8.484;2023-08-30T11:06:39;93468.50;;;18.33;100.00
39739;BME280;25422;48.286;8.484;2023-08-30T11:09:05;93462.75;;;18.24;95.95
39739;BME280;25422;48.286;8.484;2023-08-30T11:11:32;93472.00;;;18.91;95.47
39739;BME280;25422;48.286;8.484;2023-08-30T11:14:07;93471.38;;;19.18;91.02
39739;BME280;25422;48.286;8.484;2023-08-30T11:16:34;93465.56;;;19.72;87.55
39739;BME280;25422;48.286;8.484;2023-08-30T11:19:01;93472.16;;;19.01;93.14
39739;BME280;25422;48.286;8.484;2023-08-30T11:21:29;93467.59;;;18.97;94.49
39739;BME280;25422;48.286;8.484;2023-08-30T11:23:55;93471.22;;;19.59;91.36
39739;BME280;25422;48.286;8.484;2023-08-30T11:26:21;93462.94;;;19.38;90.56
39739;BME280;25422;48.286;8.484;2023-08-30T11:28:46;93457.22;;;19.80;88.42
39739;BME280;25422;48.286;8.484;2023-08-30T11:31:24;93467.00;;;18.95;95.35
39739;BME280;25422;48.286;8.484;2023-08-30T11:33:56;93461.88;;;19.90;92.87
39739;BME280;25422;48.286;8.484;2023-08-30T11:36:23;93457.38;;;20.13;90.34
39739;BME280;25422;48.286;8.484;2023-08-30T11:38:55;93458.94;;;20.53;82.30
39739;BME280;25422;48.286;8.484;2023-08-30T11:41:22;93456.16;;;20.65;83.45
39739;BME280;25422;48.286;8.484;2023-08-30T11:43:48;93451.38;;;21.21;78.39
39739;BME280;25422;48.286;8.484;2023-08-30T11:46:14;93455.03;;;20.61;79.47
39739;BME280;25422;48.286;8.484;2023-08-30T11:48:40;93454.69;;;21.34;73.06
39739;BME280;25422;48.286;8.484;2023-08-30T11:51:07;93463.81;;;21.48;69.06
39739;BME280;25422;48.286;8.484;2023-08-30T11:53:33;93456.56;;;20.79;71.22
39739;BME280;25422;48.286;8.484;2023-08-30T11:55:59;93458.66;;;21.31;69.32
39739;BME280;25422;48.286;8.484;2023-08-30T11:58:24;93457.97;;;21.14;69.26
39739;BME280;25422;48.286;8.484;2023-08-30T12:00:51;93453.97;;;21.11;68.10
39739;BME280;25422;48.286;8.484;2023-08-30T12:03:16;93461.63;;;21.72;68.97
39739;BME280;25422;48.286;8.484;2023-08-30T12:05:46;93453.28;;;21.59;67.77
39739;BME280;25422;48.286;8.484;2023-08-30T12:08:37;93449.31;;;22.62;64.12
39739;BME280;25422;48.286;8.484;2023-08-30T12:11:03;93440.28;;;22.73;64.16
39739;BME280;25422;48.286;8.484;2023-08-30T12:13:30;93444.47;;;22.49;59.08
39739;BME280;25422;48.286;8.484;2023-08-30T12:15:57;93445.66;;;21.40;65.06
39739;BME280;25422;48.286;8.484;2023-08-30T12:18:28;93450.38;;;21.60;68.23
39739;BME280;25422;48.286;8.484;2023-08-30T12:20:58;93445.88;;;22.82;59.13
39739;BME280;25422;48.286;8.484;2023-08-30T12:23:26;93448.38;;;22.31;58.15
39739;BME280;25422;48.286;8.484;2023-08-30T12:26:05;93441.63;;;21.32;60.51
39739;BME280;25422;48.286;8.484;2023-08-30T12:28:35;93444.09;;;20.13;67.98
39739;BME280;25422;48.286;8.484;2023-08-30T12:31:01;93454.25;;;19.26;83.22
39739;BME280;25422;48.286;8.484;2023-08-30T12:33:27;93442.22;;;18.72;81.11
39739;BME280;25422;48.286;8.484;2023-08-30T12:35:54;93445.09;;;18.70;86.33
39739;BME280;25422;48.286;8.484;2023-08-30T12:38:20;93453.25;;;18.52;89.05
39739;BME280;25422;48.286;8.484;2023-08-30T12:40:50;93451.25;;;18.30;94.05
39739;BME280;25422;48.286;8.484;2023-08-30T12:43:16;93441.97;;;18.04;90.48
39739;BME280;25422;48.286;8.484;2023-08-30T12:45:43;93450.38;;;18.01;94.48
39739;BME280;25422;48.286;8.484;2023-08-30T12:48:09;93445.34;;;17.76;94.84
39739;BME280;25422;48.286;8.484;2023-08-30T12:50:36;93447.41;;;17.62;98.29
39739;BME280;25422;48.286;8.484;2023-08-30T12:53:05;93452.00;;;18.02;99.25
39739;BME280;25422;48.286;8.484;2023-08-30T12:55:31;93448.34;;;18.32;100.00
39739;BME280;25422;48.286;8.484;2023-08-30T12:57:57;93443.53;;;18.29;99.23
39739;BME280;25422;48.286;8.484;2023-08-30T13:00:23;93441.69;;;19.72;88.84